sensor_id;sensor_type;location;lat;lon;timestamp;temperature;humidity
74901;DHT22;63461;51.416;6.758;2023-05-31T00:00:18;14.30;99.90
74901;DHT22;63461;51.416;6.758;2023-05-31T00:02:44;14.30;99.90
74901;DHT22;63461;51.416;6.758;2023-05-31T00:05:09;14.40;99.90
74901;DHT22;63461;51.416;6.758;2023-05-31T00:07:35;14.30;99.90
74901;DHT22;63461;51.416;6.758;2023-05-31T00:10:01;14.30;99.90
74901;DHT22;63461;51.416;6.758;2023-05-31T00:12:33;14.30;99.90
74901;DHT22;63461;51.416;6.758;2023-05-31T00:14:59;14.30;99.90
74901;DHT22;63461;51.416;6.758;2023-05-31T00:17:24;14.30;99.90
74901;DHT22;63461;51.416;6.758;2023-05-31T00:19:50;14.20;99.90
74901;DHT22;63461;51.416;6.758;2023-05-31T00:22:16;14.20;99.90
74901;DHT22;63461;51.416;6.758;2023-05-31T00:24:43;14.20;99.90
74901;DHT22;63461;51.416;6.758;2023-05-31T00:27:09;14.20;99.90
74901;DHT22;63461;51.416;6.758;2023-05-31T00:29:35;14.20;99.90
74901;DHT22;63461;51.416;6.758;2023-05-31T00:32:01;14.10;99.90
74901;DHT22;63461;51.416;6.758;2023-05-31T00:34:27;14.10;99.90
74901;DHT22;63461;51.416;6.758;2023-05-31T00:36:53;14.10;99.90
74901;DHT22;63461;51.416;6.758;2023-05-31T00:39:18;14.10;99.90
74901;DHT22;63461;51.416;6.758;2023-05-31T00:41:44;14.10;99.90
74901;DHT22;63461;51.416;6.758;2023-05-31T00:44:10;14.00;99.90
74901;DHT22;63461;51.416;6.758;2023-05-31T00:46:38;14.00;99.90
74901;DHT22;63461;51.416;6.758;2023-05-31T00:49:05;14.00;99.90
74901;DHT22;63461;51.416;6.758;2023-05-31T00:51:32;14.00;99.90
74901;DHT22;63461;51.416;6.758;2023-05-31T00:53:59;14.00;99.90
74901;DHT22;63461;51.416;6.758;2023-05-31T00:56:26;13.90;99.90
74901;DHT22;63461;51.416;6.758;2023-05-31T00:58:54;13.90;99.90
74901;DHT22;63461;51.416;6.758;2023-05-31T01:01:22;13.90;99.90
74901;DHT22;63461;51.416;6.758;2023-05-31T01:03:53;13.90;99.90
74901;DHT22;63461;51.416;6.758;2023-05-31T01:06:19;13.90;99.90
74901;DHT22;63461;51.416;6.758;2023-05-31T01:08:47;13.90;99.90
74901;DHT22;63461;51.416;6.758;2023-05-31T01:13:59;13.90;99.90
74901;DHT22;63461;51.416;6.758;2023-05-31T01:16:38;13.80;99.90
74901;DHT22;63461;51.416;6.758;2023-05-31T01:19:06;13.80;99.90
74901;DHT22;63461;51.416;6.758;2023-05-31T01:21:51;13.80;99.90
74901;DHT22;63461;51.416;6.758;2023-05-31T01:25:03;13.80;99.90
74901;DHT22;63461;51.416;6.758;2023-05-31T01:27:33;13.70;99.90
74901;DHT22;63461;51.416;6.758;2023-05-31T01:30:01;13.70;99.90
74901;DHT22;63461;51.416;6.758;2023-05-31T01:32:28;13.80;99.90
74901;DHT22;63461;51.416;6.758;2023-05-31T01:34:54;13.70;99.90
74901;DHT22;63461;51.416;6.758;2023-05-31T01:37:20;13.60;99.90
74901;DHT22;63461;51.416;6.758;2023-05-31T01:39:47;13.70;99.90
74901;DHT22;63461;51.416;6.758;2023-05-31T01:42:15;13.70;99.90
74901;DHT22;63461;51.416;6.758;2023-05-31T01:44:42;13.60;99.90
74901;DHT22;63461;51.416;6.758;2023-05-31T01:47:08;13.60;99.90
74901;DHT22;63461;51.416;6.758;2023-05-31T01:49:38;13.60;99.90
74901;DHT22;63461;51.416;6.758;2023-05-31T01:52:07;13.60;99.90
74901;DHT22;63461;51.416;6.758;2023-05-31T01:54:34;13.60;99.90
74901;DHT22;63461;51.416;6.758;2023-05-31T01:57:03;13.50;99.90
74901;DHT22;63461;51.416;6.758;2023-05-31T01:59:30;13.60;99.90
74901;DHT22;63461;51.416;6.758;2023-05-31T02:01:57;13.50;99.90
74901;DHT22;63461;51.416;6.758;2023-05-31T02:04:26;13.60;99.90
74901;DHT22;63461;51.416;6.758;2023-05-31T02:06:52;13.50;99.90
74901;DHT22;63461;51.416;6.758;2023-05-31T02:09:20;13.50;99.90
74901;DHT22;63461;51.416;6.758;2023-05-31T02:11:45;13.40;99.90
74901;DHT22;63461;51.416;6.758;2023-05-31T02:14:11;13.40;99.90
74901;DHT22;63461;51.416;6.758;2023-05-31T02:16:37;13.40;99.90
74901;DHT22;63461;51.416;6.758;2023-05-31T02:19:03;13.40;99.90
74901;DHT22;63461;51.416;6.758;2023-05-31T02:21:32;13.40;99.90
74901;DHT22;63461;51.416;6.758;2023-05-31T02:23:58;13.40;99.90
74901;DHT22;63461;51.416;6.758;2023-05-31T02:26:24;13.30;99.90
74901;DHT22;63461;51.416;6.758;2023-05-31T02:28:50;13.30;99.90
74901;DHT22;63461;51.416;6.758;2023-05-31T02:31:16;13.30;99.90
74901;DHT22;63461;51.416;6.758;2023-05-31T02:33:42;13.30;99.90
74901;DHT22;63461;51.416;6.758;2023-05-31T02:36:09;13.30;99.90
74901;DHT22;63461;51.416;6.758;2023-05-31T02:38:36;13.30;99.90
74901;DHT22;63461;51.416;6.758;2023-05-31T02:41:01;13.30;99.90
74901;DHT22;63461;51.416;6.758;2023-05-31T02:43:27;13.30;99.90
74901;DHT22;63461;51.416;6.758;2023-05-31T02:45:53;13.30;99.90
74901;DHT22;63461;51.416;6.758;2023-05-31T02:48:19;13.30;99.90
74901;DHT22;63461;51.416;6.758;2023-05-31T02:50:45;13.20;99.90
74901;DHT22;63461;51.416;6.758;2023-05-31T02:53:22;13.20;99.90
74901;DHT22;63461;51.416;6.758;2023-05-31T02:56:10;13.20;99.90
74901;DHT22;63461;51.416;6.758;2023-05-31T02:58:39;13.20;99.90
74901;DHT22;63461;51.416;6.758;2023-05-31T03:01:25;13.20;99.90
74901;DHT22;63461;51.416;6.758;2023-05-31T03:04:06;13.20;99.90
74901;DHT22;63461;51.416;6.758;2023-05-31T03:06:35;13.10;99.90
74901;DHT22;63461;51.416;6.758;2023-05-31T03:09:01;13.20;99.90
74901;DHT22;63461;51.416;6.758;2023-05-31T03:11:29;13.10;99.90
74901;DHT22;63461;51.416;6.758;2023-05-31T03:13:55;13.10;99.90
74901;DHT22;63461;51.416;6.758;2023-05-31T03:16:22;13.10;99.90
74901;DHT22;63461;51.416;6.758;2023-05-31T03:18:48;13.10;99.90
74901;DHT22;63461;51.416;6.758;2023-05-31T03:21:14;13.10;99.90
74901;DHT22;63461;51.416;6.758;2023-05-31T03:23:41;13.10;99.90
74901;DHT22;63461;51.416;6.758;2023-05-31T03:26:07;13.00;99.90
74901;DHT22;63461;51.416;6.758;2023-05-31T03:28:33;13.10;99.90
74901;DHT22;63461;51.416;6.758;2023-05-31T03:30:59;13.10;99.90
74901;DHT22;63461;51.416;6.758;2023-05-31T03:33:25;13.10;99.90
74901;DHT22;63461;51.416;6.758;2023-05-31T03:35:52;13.00;99.90
74901;DHT22;63461;51.416;6.758;2023-05-31T03:38:19;13.10;99.90
74901;DHT22;63461;51.416;6.758;2023-05-31T03:40:44;13.10;99.90
74901;DHT22;63461;51.416;6.758;2023-05-31T03:43:10;13.10;99.90
74901;DHT22;63461;51.416;6.758;2023-05-31T03:45:38;13.10;99.90
74901;DHT22;63461;51.416;6.758;2023-05-31T03:48:04;13.00;99.90
74901;DHT22;63461;51.416;6.758;2023-05-31T03:50:30;13.00;99.90
74901;DHT22;63461;51.416;6.758;2023-05-31T03:52:56;13.00;99.90
74901;DHT22;63461;51.416;6.758;2023-05-31T03:55:23;13.00;99.90
74901;DHT22;63461;51.416;6.758;2023-05-31T03:57:50;13.10;99.90
74901;DHT22;63461;51.416;6.758;2023-05-31T04:00:18;13.10;99.90
74901;DHT22;63461;51.416;6.758;2023-05-31T04:02:49;13.00;99.90
74901;DHT22;63461;51.416;6.758;2023-05-31T04:05:15;13.10;99.90
74901;DHT22;63461;51.416;6.758;2023-05-31T04:07:42;13.00;99.90
74901;DHT22;63461;51.416;6.758;2023-05-31T04:10:08;13.00;99.90
74901;DHT22;63461;51.416;6.758;2023-05-31T04:12:34;13.10;99.90
74901;DHT22;63461;51.416;6.758;2023-05-31T04:15:00;13.10;99.90
74901;DHT22;63461;51.416;6.758;2023-05-31T04:17:26;13.10;99.90
74901;DHT22;63461;51.416;6.758;2023-05-31T04:19:52;13.00;99.90
74901;DHT22;63461;51.416;6.758;2023-05-31T04:22:18;13.00;99.90
74901;DHT22;63461;51.416;6.758;2023-05-31T04:24:44;13.10;99.90
74901;DHT22;63461;51.416;6.758;2023-05-31T04:27:14;13.10;99.90
74901;DHT22;63461;51.416;6.758;2023-05-31T04:29:44;13.10;99.90
74901;DHT22;63461;51.416;6.758;2023-05-31T04:32:17;13.10;99.90
74901;DHT22;63461;51.416;6.758;2023-05-31T04:34:46;13.20;99.90
74901;DHT22;63461;51.416;6.758;2023-05-31T04:37:14;13.20;99.90
74901;DHT22;63461;51.416;6.758;2023-05-31T04:39:40;13.20;99.90
74901;DHT22;63461;51.416;6.758;2023-05-31T04:42:06;13.20;99.90
74901;DHT22;63461;51.416;6.758;2023-05-31T04:44:37;13.20;99.90
74901;DHT22;63461;51.416;6.758;2023-05-31T04:47:03;13.30;99.90
74901;DHT22;63461;51.416;6.758;2023-05-31T04:49:30;13.30;99.90
74901;DHT22;63461;51.416;6.758;2023-05-31T04:51:56;13.30;99.90
74901;DHT22;63461;51.416;6.758;2023-05-31T04:54:22;13.30;99.90
74901;DHT22;63461;51.416;6.758;2023-05-31T04:56:48;13.30;99.90
74901;DHT22;63461;51.416;6.758;2023-05-31T04:59:14;13.40;99.90
74901;DHT22;63461;51.416;6.758;2023-05-31T05:01:40;13.40;99.90
74901;DHT22;63461;51.416;6.758;2023-05-31T05:04:11;13.40;99.90
74901;DHT22;63461;51.416;6.758;2023-05-31T05:06:37;13.50;99.90
74901;DHT22;63461;51.416;6.758;2023-05-31T05:09:06;13.50;99.90
74901;DHT22;63461;51.416;6.758;2023-05-31T05:11:33;13.50;99.90
74901;DHT22;63461;51.416;6.758;2023-05-31T05:13:59;13.50;99.90
74901;DHT22;63461;51.416;6.758;2023-05-31T05:16:26;13.60;99.90
74901;DHT22;63461;51.416;6.758;2023-05-31T05:18:53;13.60;99.90
74901;DHT22;63461;51.416;6.758;2023-05-31T05:21:18;13.60;99.90
74901;DHT22;63461;51.416;6.758;2023-05-31T05:23:46;13.60;99.90
74901;DHT22;63461;51.416;6.758;2023-05-31T05:26:12;13.60;99.90
74901;DHT22;63461;51.416;6.758;2023-05-31T05:28:39;13.70;99.90
74901;DHT22;63461;51.416;6.758;2023-05-31T05:31:05;13.70;99.90
74901;DHT22;63461;51.416;6.758;2023-05-31T05:33:35;13.70;99.90
74901;DHT22;63461;51.416;6.758;2023-05-31T05:36:02;13.70;99.90
74901;DHT22;63461;51.416;6.758;2023-05-31T05:38:30;13.80;99.90
74901;DHT22;63461;51.416;6.758;2023-05-31T05:40:56;13.80;99.90
74901;DHT22;63461;51.416;6.758;2023-05-31T05:43:22;13.80;99.90
74901;DHT22;63461;51.416;6.758;2023-05-31T05:46:05;13.90;99.90
74901;DHT22;63461;51.416;6.758;2023-05-31T05:48:31;13.90;99.90
74901;DHT22;63461;51.416;6.758;2023-05-31T05:50:58;13.90;99.90
74901;DHT22;63461;51.416;6.758;2023-05-31T05:53:24;14.00;99.90
74901;DHT22;63461;51.416;6.758;2023-05-31T05:55:53;14.00;99.90
74901;DHT22;63461;51.416;6.758;2023-05-31T05:58:23;14.10;99.90
74901;DHT22;63461;51.416;6.758;2023-05-31T06:01:07;14.10;99.90
74901;DHT22;63461;51.416;6.758;2023-05-31T06:03:36;14.10;99.90
74901;DHT22;63461;51.416;6.758;2023-05-31T06:06:03;14.20;99.90
74901;DHT22;63461;51.416;6.758;2023-05-31T06:08:29;14.30;99.90
74901;DHT22;63461;51.416;6.758;2023-05-31T06:10:55;14.30;99.90
74901;DHT22;63461;51.416;6.758;2023-05-31T06:13:21;14.30;99.90
74901;DHT22;63461;51.416;6.758;2023-05-31T06:15:47;14.30;99.90
74901;DHT22;63461;51.416;6.758;2023-05-31T06:18:13;14.40;99.90
74901;DHT22;63461;51.416;6.758;2023-05-31T06:20:40;14.50;99.90
74901;DHT22;63461;51.416;6.758;2023-05-31T06:23:06;14.40;99.90
74901;DHT22;63461;51.416;6.758;2023-05-31T06:25:33;14.50;99.90
74901;DHT22;63461;51.416;6.758;2023-05-31T06:28:01;14.60;99.90
74901;DHT22;63461;51.416;6.758;2023-05-31T06:30:27;14.60;99.90
74901;DHT22;63461;51.416;6.758;2023-05-31T06:32:52;14.60;99.90
74901;DHT22;63461;51.416;6.758;2023-05-31T06:35:23;14.70;99.90
74901;DHT22;63461;51.416;6.758;2023-05-31T06:37:49;14.70;99.90
74901;DHT22;63461;51.416;6.758;2023-05-31T06:40:17;14.70;99.90
74901;DHT22;63461;51.416;6.758;2023-05-31T06:42:43;14.80;99.90
74901;DHT22;63461;51.416;6.758;2023-05-31T06:45:29;14.80;99.90
74901;DHT22;63461;51.416;6.758;2023-05-31T06:48:21;14.90;99.90
74901;DHT22;63461;51.416;6.758;2023-05-31T06:51:09;14.90;99.90
74901;DHT22;63461;51.416;6.758;2023-05-31T06:53:54;14.90;99.90
74901;DHT22;63461;51.416;6.758;2023-05-31T06:56:24;15.00;99.90
74901;DHT22;63461;51.416;6.758;2023-05-31T06:58:51;15.00;99.90
74901;DHT22;63461;51.416;6.758;2023-05-31T07:01:17;15.10;99.90
74901;DHT22;63461;51.416;6.758;2023-05-31T07:03:43;15.10;99.90
74901;DHT22;63461;51.416;6.758;2023-05-31T07:06:09;15.10;99.90
74901;DHT22;63461;51.416;6.758;2023-05-31T07:08:36;15.20;99.90
74901;DHT22;63461;51.416;6.758;2023-05-31T07:11:32;15.30;99.90
74901;DHT22;63461;51.416;6.758;2023-05-31T07:13:58;15.30;99.90
74901;DHT22;63461;51.416;6.758;2023-05-31T07:16:28;15.30;99.90
74901;DHT22;63461;51.416;6.758;2023-05-31T07:18:56;15.40;99.90
74901;DHT22;63461;51.416;6.758;2023-05-31T07:21:22;15.50;99.90
74901;DHT22;63461;51.416;6.758;2023-05-31T07:23:48;15.60;99.90
74901;DHT22;63461;51.416;6.758;2023-05-31T07:26:15;15.60;99.90
74901;DHT22;63461;51.416;6.758;2023-05-31T07:28:42;15.60;99.90
74901;DHT22;63461;51.416;6.758;2023-05-31T07:31:09;15.70;99.90
74901;DHT22;63461;51.416;6.758;2023-05-31T07:33:35;15.70;99.90
74901;DHT22;63461;51.416;6.758;2023-05-31T07:36:01;15.70;99.90
74901;DHT22;63461;51.416;6.758;2023-05-31T07:38:27;15.80;99.90
74901;DHT22;63461;51.416;6.758;2023-05-31T07:40:54;15.80;99.90
74901;DHT22;63461;51.416;6.758;2023-05-31T07:43:19;15.90;99.90
74901;DHT22;63461;51.416;6.758;2023-05-31T07:45:49;15.80;99.90
74901;DHT22;63461;51.416;6.758;2023-05-31T07:48:16;15.80;99.90
74901;DHT22;63461;51.416;6.758;2023-05-31T07:50:43;16.00;99.90
74901;DHT22;63461;51.416;6.758;2023-05-31T07:53:08;16.10;99.90
74901;DHT22;63461;51.416;6.758;2023-05-31T07:55:34;16.00;99.90
74901;DHT22;63461;51.416;6.758;2023-05-31T07:58:01;16.10;99.90
74901;DHT22;63461;51.416;6.758;2023-05-31T08:00:27;16.20;99.90
74901;DHT22;63461;51.416;6.758;2023-05-31T08:02:53;16.20;99.90
74901;DHT22;63461;51.416;6.758;2023-05-31T08:05:19;16.20;99.90
74901;DHT22;63461;51.416;6.758;2023-05-31T08:07:45;16.20;99.90
74901;DHT22;63461;51.416;6.758;2023-05-31T08:10:10;16.40;99.90
74901;DHT22;63461;51.416;6.758;2023-05-31T08:12:37;16.40;99.90
74901;DHT22;63461;51.416;6.758;2023-05-31T08:15:03;16.50;99.90
74901;DHT22;63461;51.416;6.758;2023-05-31T08:17:29;16.40;99.90
74901;DHT22;63461;51.416;6.758;2023-05-31T08:19:55;16.40;99.90
74901;DHT22;63461;51.416;6.758;2023-05-31T08:22:21;16.60;99.90
74901;DHT22;63461;51.416;6.758;2023-05-31T08:24:47;16.60;99.90
74901;DHT22;63461;51.416;6.758;2023-05-31T08:27:12;16.60;99.90
74901;DHT22;63461;51.416;6.758;2023-05-31T08:29:38;16.70;99.90
74901;DHT22;63461;51.416;6.758;2023-05-31T08:32:04;16.70;99.90
74901;DHT22;63461;51.416;6.758;2023-05-31T08:34:30;16.60;99.90
74901;DHT22;63461;51.416;6.758;2023-05-31T08:36:56;16.60;99.90
74901;DHT22;63461;51.416;6.758;2023-05-31T08:39:23;16.80;99.90
74901;DHT22;63461;51.416;6.758;2023-05-31T08:42:04;16.90;99.90
74901;DHT22;63461;51.416;6.758;2023-05-31T08:44:32;17.10;99.90
74901;DHT22;63461;51.416;6.758;2023-05-31T08:47:22;17.10;99.90
74901;DHT22;63461;51.416;6.758;2023-05-31T08:49:44;17.10;99.90
74901;DHT22;63461;51.416;6.758;2023-05-31T08:52:11;17.10;99.90
74901;DHT22;63461;51.416;6.758;2023-05-31T08:54:38;17.10;99.90
74901;DHT22;63461;51.416;6.758;2023-05-31T08:57:04;17.10;99.90
74901;DHT22;63461;51.416;6.758;2023-05-31T08:59:31;17.30;99.90
74901;DHT22;63461;51.416;6.758;2023-05-31T09:01:59;17.20;99.90
74901;DHT22;63461;51.416;6.758;2023-05-31T09:04:26;17.20;99.90
74901;DHT22;63461;51.416;6.758;2023-05-31T09:06:52;17.50;99.90
74901;DHT22;63461;51.416;6.758;2023-05-31T09:09:18;17.70;99.90
74901;DHT22;63461;51.416;6.758;2023-05-31T09:11:45;17.80;99.90
74901;DHT22;63461;51.416;6.758;2023-05-31T09:14:11;17.60;99.90
74901;DHT22;63461;51.416;6.758;2023-05-31T09:16:37;17.80;99.90
74901;DHT22;63461;51.416;6.758;2023-05-31T09:19:06;17.70;99.90
74901;DHT22;63461;51.416;6.758;2023-05-31T09:21:43;17.60;99.90
74901;DHT22;63461;51.416;6.758;2023-05-31T09:24:10;17.60;99.90
74901;DHT22;63461;51.416;6.758;2023-05-31T09:26:48;17.70;99.90
74901;DHT22;63461;51.416;6.758;2023-05-31T09:29:14;17.60;99.90
74901;DHT22;63461;51.416;6.758;2023-05-31T09:31:41;17.60;99.90
74901;DHT22;63461;51.416;6.758;2023-05-31T09:34:24;17.60;99.90
74901;DHT22;63461;51.416;6.758;2023-05-31T09:36:51;17.90;99.90
74901;DHT22;63461;51.416;6.758;2023-05-31T09:39:17;18.00;99.90
74901;DHT22;63461;51.416;6.758;2023-05-31T09:41:49;18.40;99.90
74901;DHT22;63461;51.416;6.758;2023-05-31T09:44:15;18.10;99.90
74901;DHT22;63461;51.416;6.758;2023-05-31T09:46:41;18.20;99.90
74901;DHT22;63461;51.416;6.758;2023-05-31T09:49:07;18.30;99.90
74901;DHT22;63461;51.416;6.758;2023-05-31T09:51:35;18.30;99.90
74901;DHT22;63461;51.416;6.758;2023-05-31T09:54:09;18.30;99.90
74901;DHT22;63461;51.416;6.758;2023-05-31T09:56:37;18.50;99.90
74901;DHT22;63461;51.416;6.758;2023-05-31T09:59:04;18.50;99.90
74901;DHT22;63461;51.416;6.758;2023-05-31T10:01:32;18.80;99.90
74901;DHT22;63461;51.416;6.758;2023-05-31T10:03:58;19.00;99.90
74901;DHT22;63461;51.416;6.758;2023-05-31T10:06:26;18.70;99.90
74901;DHT22;63461;51.416;6.758;2023-05-31T10:08:52;18.60;99.90
74901;DHT22;63461;51.416;6.758;2023-05-31T10:11:34;18.50;99.90
74901;DHT22;63461;51.416;6.758;2023-05-31T10:14:03;18.60;99.90
74901;DHT22;63461;51.416;6.758;2023-05-31T10:16:38;19.00;99.90
74901;DHT22;63461;51.416;6.758;2023-05-31T10:19:09;18.90;99.90
74901;DHT22;63461;51.416;6.758;2023-05-31T10:21:41;19.20;99.90
74901;DHT22;63461;51.416;6.758;2023-05-31T10:24:13;19.10;99.90
74901;DHT22;63461;51.416;6.758;2023-05-31T10:27:00;19.00;99.90
74901;DHT22;63461;51.416;6.758;2023-05-31T10:29:31;18.80;99.90
74901;DHT22;63461;51.416;6.758;2023-05-31T10:32:05;19.20;99.90
74901;DHT22;63461;51.416;6.758;2023-05-31T10:34:33;19.30;99.90
74901;DHT22;63461;51.416;6.758;2023-05-31T10:36:59;19.60;99.90
74901;DHT22;63461;51.416;6.758;2023-05-31T10:42:25;19.50;99.90
74901;DHT22;63461;51.416;6.758;2023-05-31T10:47:40;19.30;99.90
74901;DHT22;63461;51.416;6.758;2023-05-31T10:50:08;19.30;99.90
74901;DHT22;63461;51.416;6.758;2023-05-31T10:52:33;19.20;99.90
74901;DHT22;63461;51.416;6.758;2023-05-31T10:55:15;19.50;99.90
74901;DHT22;63461;51.416;6.758;2023-05-31T10:57:42;19.60;99.90
74901;DHT22;63461;51.416;6.758;2023-05-31T11:00:08;19.40;99.90
74901;DHT22;63461;51.416;6.758;2023-05-31T11:02:47;19.70;99.70
74901;DHT22;63461;51.416;6.758;2023-05-31T11:05:25;19.60;99.80
74901;DHT22;63461;51.416;6.758;2023-05-31T11:07:54;19.30;99.90
74901;DHT22;63461;51.416;6.758;2023-05-31T11:10:30;19.70;99.00
74901;DHT22;63461;51.416;6.758;2023-05-31T11:13:04;19.90;97.60
74901;DHT22;63461;51.416;6.758;2023-05-31T11:15:41;19.80;97.40
74901;DHT22;63461;51.416;6.758;2023-05-31T11:18:09;19.90;97.50
74901;DHT22;63461;51.416;6.758;2023-05-31T11:20:36;19.80;97.50
74901;DHT22;63461;51.416;6.758;2023-05-31T11:23:26;20.00;96.90
74901;DHT22;63461;51.416;6.758;2023-05-31T11:26:16;19.70;98.10
74901;DHT22;63461;51.416;6.758;2023-05-31T11:28:55;19.70;97.70
74901;DHT22;63461;51.416;6.758;2023-05-31T11:34:25;19.90;97.40
74901;DHT22;63461;51.416;6.758;2023-05-31T11:36:52;20.00;97.60
74901;DHT22;63461;51.416;6.758;2023-05-31T11:39:18;19.90;97.90
74901;DHT22;63461;51.416;6.758;2023-05-31T11:41:44;20.30;97.80
74901;DHT22;63461;51.416;6.758;2023-05-31T11:44:11;20.30;96.30
74901;DHT22;63461;51.416;6.758;2023-05-31T11:46:40;19.90;97.00
74901;DHT22;63461;51.416;6.758;2023-05-31T11:49:11;19.80;97.00
74901;DHT22;63461;51.416;6.758;2023-05-31T11:51:37;19.70;97.30
74901;DHT22;63461;51.416;6.758;2023-05-31T11:54:05;19.90;97.50
74901;DHT22;63461;51.416;6.758;2023-05-31T11:56:31;20.20;96.70
74901;DHT22;63461;51.416;6.758;2023-05-31T11:59:02;20.20;96.40
74901;DHT22;63461;51.416;6.758;2023-05-31T12:01:34;20.50;95.90
74901;DHT22;63461;51.416;6.758;2023-05-31T12:04:00;20.40;96.30
74901;DHT22;63461;51.416;6.758;2023-05-31T12:06:27;20.20;96.10
74901;DHT22;63461;51.416;6.758;2023-05-31T12:08:54;20.30;95.40
74901;DHT22;63461;51.416;6.758;2023-05-31T12:11:20;20.40;95.50
74901;DHT22;63461;51.416;6.758;2023-05-31T12:13:47;20.40;95.80
74901;DHT22;63461;51.416;6.758;2023-05-31T12:16:14;20.30;96.20
74901;DHT22;63461;51.416;6.758;2023-05-31T12:18:40;20.40;95.70
74901;DHT22;63461;51.416;6.758;2023-05-31T12:21:09;20.30;95.30
74901;DHT22;63461;51.416;6.758;2023-05-31T12:23:56;20.40;95.20
74901;DHT22;63461;51.416;6.758;2023-05-31T12:26:24;20.40;95.50
74901;DHT22;63461;51.416;6.758;2023-05-31T12:28:52;20.40;95.40
74901;DHT22;63461;51.416;6.758;2023-05-31T12:31:21;20.60;95.00
74901;DHT22;63461;51.416;6.758;2023-05-31T12:33:59;20.70;95.00
74901;DHT22;63461;51.416;6.758;2023-05-31T12:36:25;20.90;94.60
74901;DHT22;63461;51.416;6.758;2023-05-31T12:38:57;20.50;95.40
74901;DHT22;63461;51.416;6.758;2023-05-31T12:41:23;20.80;93.90
74901;DHT22;63461;51.416;6.758;2023-05-31T12:43:49;21.00;93.50
74901;DHT22;63461;51.416;6.758;2023-05-31T12:46:18;20.80;93.80
74901;DHT22;63461;51.416;6.758;2023-05-31T12:48:49;20.70;94.40
74901;DHT22;63461;51.416;6.758;2023-05-31T12:51:22;20.50;94.50
74901;DHT22;63461;51.416;6.758;2023-05-31T12:53:48;20.40;95.40
74901;DHT22;63461;51.416;6.758;2023-05-31T12:56:14;20.60;95.20
74901;DHT22;63461;51.416;6.758;2023-05-31T12:58:42;20.80;94.40
74901;DHT22;63461;51.416;6.758;2023-05-31T13:01:08;21.00;94.00
74901;DHT22;63461;51.416;6.758;2023-05-31T13:03:34;20.80;94.20
74901;DHT22;63461;51.416;6.758;2023-05-31T13:06:00;20.60;94.90
74901;DHT22;63461;51.416;6.758;2023-05-31T13:08:25;20.80;94.60
74901;DHT22;63461;51.416;6.758;2023-05-31T13:10:51;21.10;94.30
74901;DHT22;63461;51.416;6.758;2023-05-31T13:13:17;21.30;93.70
74901;DHT22;63461;51.416;6.758;2023-05-31T13:15:43;21.30;93.70
74901;DHT22;63461;51.416;6.758;2023-05-31T13:18:09;21.30;93.60
74901;DHT22;63461;51.416;6.758;2023-05-31T13:20:35;21.20;93.60
74901;DHT22;63461;51.416;6.758;2023-05-31T13:23:01;21.30;93.70
74901;DHT22;63461;51.416;6.758;2023-05-31T13:25:27;21.30;92.50
74901;DHT22;63461;51.416;6.758;2023-05-31T13:27:53;21.30;92.40
74901;DHT22;63461;51.416;6.758;2023-05-31T13:30:18;21.00;93.20
74901;DHT22;63461;51.416;6.758;2023-05-31T13:32:44;21.20;93.10
74901;DHT22;63461;51.416;6.758;2023-05-31T13:35:11;21.40;93.40
74901;DHT22;63461;51.416;6.758;2023-05-31T13:37:37;21.20;93.80
74901;DHT22;63461;51.416;6.758;2023-05-31T13:40:03;21.40;93.00
74901;DHT22;63461;51.416;6.758;2023-05-31T13:42:29;21.30;92.90
74901;DHT22;63461;51.416;6.758;2023-05-31T13:44:55;21.40;92.20
74901;DHT22;63461;51.416;6.758;2023-05-31T13:47:21;21.70;91.80
74901;DHT22;63461;51.416;6.758;2023-05-31T13:49:47;21.70;92.00
74901;DHT22;63461;51.416;6.758;2023-05-31T13:52:13;21.50;92.60
74901;DHT22;63461;51.416;6.758;2023-05-31T13:54:41;21.80;91.90
74901;DHT22;63461;51.416;6.758;2023-05-31T13:57:06;21.90;91.90
74901;DHT22;63461;51.416;6.758;2023-05-31T13:59:32;21.70;92.40
74901;DHT22;63461;51.416;6.758;2023-05-31T14:01:59;21.80;92.20
74901;DHT22;63461;51.416;6.758;2023-05-31T14:04:25;21.90;92.40
74901;DHT22;63461;51.416;6.758;2023-05-31T14:06:50;22.10;91.50
74901;DHT22;63461;51.416;6.758;2023-05-31T14:09:16;21.90;91.80
74901;DHT22;63461;51.416;6.758;2023-05-31T14:11:43;22.00;92.10
74901;DHT22;63461;51.416;6.758;2023-05-31T14:14:08;21.90;92.10
74901;DHT22;63461;51.416;6.758;2023-05-31T14:16:34;21.90;92.60
74901;DHT22;63461;51.416;6.758;2023-05-31T14:19:00;22.10;91.80
74901;DHT22;63461;51.416;6.758;2023-05-31T14:21:26;22.20;91.50
74901;DHT22;63461;51.416;6.758;2023-05-31T14:23:52;22.10;91.50
74901;DHT22;63461;51.416;6.758;2023-05-31T14:26:17;22.40;91.80
74901;DHT22;63461;51.416;6.758;2023-05-31T14:28:43;22.30;91.80
74901;DHT22;63461;51.416;6.758;2023-05-31T14:31:09;22.40;92.10
74901;DHT22;63461;51.416;6.758;2023-05-31T14:33:38;22.50;91.70
74901;DHT22;63461;51.416;6.758;2023-05-31T14:36:05;22.20;91.80
74901;DHT22;63461;51.416;6.758;2023-05-31T14:38:30;22.10;91.80
74901;DHT22;63461;51.416;6.758;2023-05-31T14:40:56;22.20;91.60
74901;DHT22;63461;51.416;6.758;2023-05-31T14:43:22;22.30;91.40
74901;DHT22;63461;51.416;6.758;2023-05-31T14:45:48;22.50;91.60
74901;DHT22;63461;51.416;6.758;2023-05-31T14:48:13;22.40;91.60
74901;DHT22;63461;51.416;6.758;2023-05-31T14:50:39;22.30;91.10
74901;DHT22;63461;51.416;6.758;2023-05-31T14:53:06;22.40;90.40
74901;DHT22;63461;51.416;6.758;2023-05-31T14:55:32;22.50;91.00
74901;DHT22;63461;51.416;6.758;2023-05-31T14:57:57;22.60;91.00
74901;DHT22;63461;51.416;6.758;2023-05-31T15:00:23;22.80;91.10
74901;DHT22;63461;51.416;6.758;2023-05-31T15:02:49;22.50;91.30
74901;DHT22;63461;51.416;6.758;2023-05-31T15:05:15;22.40;91.00
74901;DHT22;63461;51.416;6.758;2023-05-31T15:07:40;22.40;91.20
74901;DHT22;63461;51.416;6.758;2023-05-31T15:10:07;22.40;91.30
74901;DHT22;63461;51.416;6.758;2023-05-31T15:12:32;22.30;91.50
74901;DHT22;63461;51.416;6.758;2023-05-31T15:14:58;22.50;91.30
74901;DHT22;63461;51.416;6.758;2023-05-31T15:17:24;22.50;91.10
74901;DHT22;63461;51.416;6.758;2023-05-31T15:19:50;22.80;90.80
74901;DHT22;63461;51.416;6.758;2023-05-31T15:22:15;22.80;90.50
74901;DHT22;63461;51.416;6.758;2023-05-31T15:24:41;22.90;90.90
74901;DHT22;63461;51.416;6.758;2023-05-31T15:27:08;23.10;91.20
74901;DHT22;63461;51.416;6.758;2023-05-31T15:29:35;23.00;91.20
74901;DHT22;63461;51.416;6.758;2023-05-31T15:32:03;23.00;91.30
74901;DHT22;63461;51.416;6.758;2023-05-31T15:34:29;23.10;91.30
74901;DHT22;63461;51.416;6.758;2023-05-31T15:36:55;23.10;90.70
74901;DHT22;63461;51.416;6.758;2023-05-31T15:39:21;22.90;91.10
74901;DHT22;63461;51.416;6.758;2023-05-31T15:41:46;22.80;91.20
74901;DHT22;63461;51.416;6.758;2023-05-31T15:44:12;23.00;90.70
74901;DHT22;63461;51.416;6.758;2023-05-31T15:46:41;23.00;90.50